Time;durP1;ratioP1;P1;durP2;ratioP2;P2;SDS_P1;SDS_P2;PMS_P1;PMS_P2;Temp;Humidity;BMP_temperature;BMP_pressure;BME280_temperature;BME280_humidity;BME280_pressure;Samples;Min_cycle;Max_cycle;Signal;HPM_P1;HPM_P2
2023/02/27 00:00:47;;;;;;;8.02;3.65;;;;;;;17.84;98.06;101424.97;2096145;28;20056;-76
2023/02/27 00:02:10;;;;;;;8.85;3.97;;;;;;;17.83;98.72;101424.06;2097059;28;20049;-76
2023/02/27 00:03:32;;;;;;;4.95;2.97;;;;;;;17.80;100.00;101413.38;2097291;28;20047;-76
2023/02/27 00:04:53;;;;;;;7.28;3.75;;;;;;;17.80;99.87;101396.47;2087599;28;20049;-76
2023/02/27 00:06:18;;;;;;;10.10;4.05;;;;;;;17.80;100.00;101399.13;2090907;28;20072;-76
2023/02/27 00:07:41;;;;;;;8.00;3.53;;;;;;;17.76;100.00;101387.59;2100510;28;20047;-76
2023/02/27 00:09:03;;;;;;;12.00;3.40;;;;;;;17.75;100.00;101408.97;2094714;28;20044;-76
2023/02/27 00:10:24;;;;;;;8.10;3.50;;;;;;;17.72;100.00;101392.97;2097171;28;20048;-76
2023/02/27 00:11:46;;;;;;;6.95;3.40;;;;;;;17.68;100.00;101372.47;2103019;28;20044;-76
2023/02/27 00:13:09;;;;;;;7.93;3.47;;;;;;;17.67;100.00;101368.03;2096401;28;20052;-76
2023/02/27 00:14:32;;;;;;;5.82;2.88;;;;;;;17.62;100.00;101370.72;2094822;28;20045;-75
2023/02/27 00:15:55;;;;;;;9.20;3.70;;;;;;;17.60;100.00;101355.56;2093444;28;20044;-76
2023/02/27 00:17:16;;;;;;;6.45;3.33;;;;;;;17.57;100.00;101360.94;2094149;28;21024;-76
2023/02/27 00:18:38;;;;;;;8.27;3.13;;;;;;;17.54;100.00;101353.81;2093820;28;20392;-76
2023/02/27 00:20:01;;;;;;;7.40;3.25;;;;;;;17.51;100.00;101362.72;2093771;28;20060;-76
2023/02/27 00:21:23;;;;;;;6.15;3.42;;;;;;;17.49;100.00;101352.94;2092724;28;20059;-75
2023/02/27 00:22:46;;;;;;;7.55;3.63;;;;;;;17.46;100.00;101371.63;2086132;28;20048;-76
2023/02/27 00:24:09;;;;;;;9.15;2.85;;;;;;;17.42;100.00;101381.44;2090437;28;20068;-75
2023/02/27 00:25:31;;;;;;;9.15;3.13;;;;;;;17.39;100.00;101392.09;2096589;28;20040;-77
2023/02/27 00:26:53;;;;;;;4.40;2.53;;;;;;;17.35;100.00;101371.66;2095048;28;20054;-75
2023/02/27 00:28:16;;;;;;;8.43;2.88;;;;;;;17.35;100.00;101393.00;2082010;28;20054;-76
2023/02/27 00:29:37;;;;;;;6.18;2.03;;;;;;;17.35;100.00;101417.03;2093436;28;20135;-76
2023/02/27 00:30:59;;;;;;;6.95;2.83;;;;;;;17.38;100.00;101409.03;2089017;28;20441;-76
2023/02/27 00:32:22;;;;;;;6.82;2.78;;;;;;;17.42;100.00;101420.59;2096352;28;20561;-76
2023/02/27 00:33:44;;;;;;;5.47;2.08;;;;;;;17.45;100.00;101431.28;2089180;28;20386;-76
2023/02/27 00:35:09;;;;;;;6.72;2.35;;;;;;;17.47;100.00;101426.78;2094293;28;20055;-76
2023/02/27 00:36:33;;;;;;;3.42;1.85;;;;;;;17.50;100.00;101450.84;2093455;28;20071;-76
2023/02/27 00:37:55;;;;;;;5.10;2.20;;;;;;;17.50;100.00;101445.50;2086273;28;20404;-75
2023/02/27 00:39:18;;;;;;;5.03;2.00;;;;;;;17.50;99.91;101441.03;2100253;28;20063;-76
2023/02/27 00:40:39;;;;;;;7.32;2.75;;;;;;;17.53;99.10;101441.03;2087358;28;20540;-76
2023/02/27 00:42:02;;;;;;;7.68;2.33;;;;;;;17.55;96.39;101443.69;2085996;28;20045;-76
2023/02/27 00:43:24;;;;;;;3.53;1.73;;;;;;;17.56;95.26;101444.59;2086205;28;20049;-76
2023/02/27 00:44:46;;;;;;;3.58;1.52;;;;;;;17.56;93.91;101434.78;2093138;28;20040;-76
2023/02/27 00:46:09;;;;;;;5.45;1.90;;;;;;;17.59;91.36;101445.44;2082603;28;20164;-76
2023/02/27 00:47:31;;;;;;;;;;;;;;;17.58;89.05;101445.47;2083302;28;20049;-76
2023/02/27 00:48:53;;;;;;;3.92;1.73;;;;;;;17.61;88.20;101433.03;2080496;28;20019;-77
2023/02/27 00:50:16;;;;;;;3.95;1.63;;;;;;;17.63;85.82;101431.25;2076734;28;20057;-76
2023/02/27 00:51:39;;;;;;;5.00;1.98;;;;;;;17.69;84.66;101430.34;2091542;28;20087;-76
2023/02/27 00:53:02;;;;;;;4.05;1.45;;;;;;;17.69;83.18;101430.34;2090965;28;20115;-76
2023/02/27 00:54:23;;;;;;;6.07;2.13;;;;;;;17.68;83.57;101418.78;2086283;28;20052;-76
2023/02/27 00:55:45;;;;;;;5.88;1.88;;;;;;;17.66;84.03;101415.22;2090564;28;20049;-76
2023/02/27 00:57:07;;;;;;;4.97;1.80;;;;;;;17.63;84.21;101415.22;2094376;28;20056;-76
2023/02/27 00:58:29;;;;;;;8.63;2.10;;;;;;;17.60;84.04;101416.97;2092578;28;20130;-76
2023/02/27 00:59:50;;;;;;;4.28;1.50;;;;;;;17.56;82.32;101425.91;2084918;28;20095;-76
2023/02/27 01:01:14;;;;;;;5.43;1.85;;;;;;;17.54;82.02;101418.78;2088713;28;20052;-76
2023/02/27 01:02:35;;;;;;;7.95;2.20;;;;;;;17.51;85.90;101410.78;2094130;28;20257;-76
2023/02/27 01:03:57;;;;;;;4.75;2.30;;;;;;;17.46;89.48;101409.88;2093197;28;20133;-76
2023/02/27 01:05:19;;;;;;;6.07;1.80;;;;;;;17.42;88.78;101416.13;2102345;28;20048;-76
2023/02/27 01:06:43;;;;;;;5.75;2.20;;;;;;;17.39;87.07;101418.78;2089858;28;20114;-76
2023/02/27 01:08:06;;;;;;;5.85;2.28;;;;;;;17.34;89.53;101409.91;2086084;28;20064;-76
2023/02/27 01:09:28;;;;;;;6.40;2.70;;;;;;;17.31;91.91;101409.94;2080499;28;20038;-77
2023/02/27 01:10:51;;;;;;;8.52;2.58;;;;;;;17.26;93.71;101401.06;2090940;28;20051;-76
2023/02/27 01:12:13;;;;;;;2.58;1.40;;;;;;;17.20;89.88;101382.34;2087778;28;20158;-76
2023/02/27 01:13:36;;;;;;;3.53;1.75;;;;;;;17.27;75.53;101389.47;2098808;28;20048;-76
2023/02/27 01:14:57;;;;;;;4.45;2.00;;;;;;;17.33;71.36;101384.09;2077783;28;20281;-76
2023/02/27 01:16:19;;;;;;;3.05;1.40;;;;;;;17.39;62.50;101386.75;2080012;28;20057;-76
2023/02/27 01:17:41;;;;;;;3.60;1.45;;;;;;;17.43;60.14;101380.53;2085919;28;20045;-77
2023/02/27 01:19:03;;;;;;;2.60;1.20;;;;;;;17.48;53.82;101368.06;2093964;28;20198;-76
2023/02/27 01:20:25;;;;;;;3.80;1.27;;;;;;;17.62;52.98;101376.06;2093923;28;20086;-76
2023/02/27 01:21:48;;;;;;;2.05;1.30;;;;;;;17.66;53.11;101353.78;2094214;28;20643;-76
2023/02/27 01:23:10;;;;;;;4.18;1.45;;;;;;;17.68;50.14;101375.16;2085736;28;20037;-76
2023/02/27 01:24:33;;;;;;;2.15;1.13;;;;;;;17.72;50.10;101360.91;2083228;28;20071;-76
2023/02/27 01:25:54;;;;;;;4.63;1.38;;;;;;;17.77;48.68;101359.09;2086053;28;20040;-75
2023/02/27 01:27:16;;;;;;;3.83;1.50;;;;;;;17.77;49.05;101349.31;2094007;28;20127;-76
2023/02/27 01:28:39;;;;;;;3.40;1.42;;;;;;;17.78;48.72;101342.19;2088721;28;20826;-76
2023/02/27 01:30:00;;;;;;;3.38;1.50;;;;;;;17.85;47.34;101343.94;2085908;28;20102;-76
2023/02/27 01:31:22;;;;;;;5.32;1.63;;;;;;;17.95;45.98;101350.09;2093767;28;20032;-76
2023/02/27 01:32:45;;;;;;;4.82;1.77;;;;;;;18.01;45.35;101339.38;2088518;28;20053;-76
2023/02/27 01:34:06;;;;;;;6.43;1.95;;;;;;;18.08;44.76;101342.00;2094245;28;20593;-76
2023/02/27 01:35:28;;;;;;;4.32;1.98;;;;;;;18.13;45.05;101341.97;2088191;28;20044;-76
2023/02/27 01:36:51;;;;;;;3.75;1.50;;;;;;;18.13;45.35;101337.53;2101580;28;20048;-76
2023/02/27 01:38:13;;;;;;;2.05;1.40;;;;;;;18.09;45.23;101334.88;2087399;28;20620;-76
2023/02/27 01:39:36;;;;;;;3.30;1.73;;;;;;;18.07;46.11;101332.22;2085830;28;20405;-76
2023/02/27 01:41:01;;;;;;;3.92;2.00;;;;;;;18.09;46.42;101343.78;2089946;28;20570;-76
2023/02/27 01:42:24;;;;;;;4.40;1.73;;;;;;;18.12;47.34;101357.13;2088415;28;20626;-77
2023/02/27 01:43:58;;;;;;;5.80;2.40;;;;;;;18.07;47.99;101364.28;2088392;28;20087;-76
2023/02/27 01:45:30;;;;;;;5.35;2.30;;;;;;;18.03;49.14;101367.00;2094691;28;20086;-76
2023/02/27 01:46:52;;;;;;;6.13;2.08;;;;;;;17.96;49.72;101368.81;2096648;28;20082;-76
2023/02/27 01:48:17;;;;;;;5.57;1.73;;;;;;;17.94;49.93;101359.91;2088235;28;20048;-76
2023/02/27 01:49:39;;;;;;;4.90;1.92;;;;;;;17.92;49.81;101359.91;2085935;28;20044;-75
2023/02/27 01:51:05;;;;;;;4.15;1.48;;;;;;;17.92;49.25;101359.00;2088334;28;20056;-76
2023/02/27 01:52:32;;;;;;;5.13;1.98;;;;;;;17.93;49.55;101363.47;2086048;28;20052;-76
2023/02/27 01:53:55;;;;;;;3.58;2.00;;;;;;;17.93;49.22;101345.66;2088162;28;20052;-76
2023/02/27 01:55:17;;;;;;;5.25;1.83;;;;;;;18.02;47.35;101365.22;2093393;28;20064;-76
2023/02/27 01:56:40;;;;;;;5.30;1.95;;;;;;;18.07;47.10;101360.72;2084773;28;20065;-76
2023/02/27 01:58:02;;;;;;;3.70;1.85;;;;;;;18.10;47.06;101369.63;2091444;28;20064;-75
2023/02/27 01:59:25;;;;;;;3.47;1.33;;;;;;;18.13;45.96;101374.06;2085729;28;20040;-76
2023/02/27 02:00:47;;;;;;;4.88;1.73;;;;;;;18.16;46.23;101374.06;2088861;28;20040;-76
2023/02/27 02:02:15;;;;;;;5.40;2.10;;;;;;;18.15;46.30;101367.81;2079663;28;20115;-76
2023/02/27 02:03:42;;;;;;;4.90;2.20;;;;;;;18.17;46.02;101370.47;2087429;28;20508;-76
2023/02/27 02:05:06;;;;;;;3.20;1.77;;;;;;;18.19;45.60;101377.56;2087942;28;20479;-76
2023/02/27 02:06:34;;;;;;;3.38;1.80;;;;;;;18.20;46.05;101376.69;2085226;28;20041;-76
2023/02/27 02:07:58;;;;;;;4.60;1.73;;;;;;;18.20;46.09;101362.44;2084958;28;20041;-76
2023/02/27 02:09:22;;;;;;;4.68;1.83;;;;;;;18.21;46.30;101367.78;2085990;28;20053;-76
2023/02/27 02:10:46;;;;;;;4.70;2.00;;;;;;;18.24;45.97;101362.44;2087398;28;20045;-76
2023/02/27 02:12:10;;;;;;;7.18;1.67;;;;;;;18.24;46.38;101351.72;2087062;28;20047;-76
2023/02/27 02:13:31;;;;;;;5.72;1.52;;;;;;;18.22;47.03;101371.34;2091421;28;20401;-75
2023/02/27 02:14:54;;;;;;;4.78;1.80;;;;;;;18.22;46.93;101358.88;2083029;28;20033;-75
2023/02/27 02:16:38;;;;;;;4.20;1.73;;;;;;;18.26;46.40;101368.63;2082858;28;20053;-76
2023/02/27 02:18:15;;;;;;;4.20;2.13;;;;;;;18.32;47.07;101370.38;2096581;28;20079;-76
2023/02/27 02:20:00;;;;;;;3.00;1.48;;;;;;;18.40;47.08;101383.69;2094796;28;20044;-76
2023/02/27 02:22:02;;;;;;;3.60;1.40;;;;;;;18.39;47.65;101373.88;2089904;28;20037;-76
2023/02/27 02:24:00;;;;;;;3.63;2.10;;;;;;;18.39;48.53;101380.13;2065104;28;20471;-76
2023/02/27 02:25:52;;;;;;;4.80;1.90;;;;;;;18.36;49.62;101393.53;2095628;28;20523;-76
2023/02/27 02:27:34;;;;;;;3.40;1.77;;;;;;;18.33;50.33;101370.38;2094793;28;20143;-75
2023/02/27 02:29:49;;;;;;;6.57;2.28;;;;;;;18.32;50.99;101389.97;2083010;28;20135;-76
2023/02/27 02:31:40;;;;;;;5.70;2.08;;;;;;;18.29;51.61;101375.75;2087675;28;20048;-76
2023/02/27 02:33:33;;;;;;;4.57;2.05;;;;;;;18.28;52.47;101385.56;2088296;28;20574;-76
2023/02/27 02:35:05;;;;;;;;;;;;;;;18.21;52.23;101373.13;2067628;28;20481;-76
2023/02/27 02:37:08;;;;;;;5.13;1.97;;;;;;;18.32;51.34;101381.06;2092838;28;20400;-76
2023/02/27 02:39:00;;;;;;;5.03;1.70;;;;;;;18.35;52.14;101370.38;2086415;28;20302;-76
2023/02/27 02:40:33;;;;;;;4.28;1.55;;;;;;;18.39;52.87;101392.59;2092369;28;20037;-76
2023/02/27 02:42:03;;;;;;;5.15;1.80;;;;;;;18.38;53.67;101377.50;2086839;28;20053;-76
2023/02/27 02:43:29;;;;;;;6.60;1.90;;;;;;;18.35;54.70;101388.19;2088024;28;20048;-76
2023/02/27 02:45:03;;;;;;;2.90;1.70;;;;;;;18.34;55.89;101387.28;2093653;28;20358;-77
2023/02/27 02:46:34;;;;;;;5.70;1.75;;;;;;;18.29;57.34;101365.94;2079647;28;20042;-77
2023/02/27 02:48:02;;;;;;;4.20;1.77;;;;;;;18.26;58.38;101362.38;2083864;28;20591;-76
2023/02/27 02:49:30;;;;;;;3.50;1.48;;;;;;;18.27;58.90;101354.38;2084883;28;20504;-76
2023/02/27 02:51:00;;;;;;;4.20;1.75;;;;;;;18.35;59.48;101327.59;2091715;28;20041;-77
2023/02/27 02:52:30;;;;;;;3.38;1.60;;;;;;;18.39;60.28;101340.03;2085102;28;20076;-77
2023/02/27 02:54:00;;;;;;;4.57;1.95;;;;;;;18.41;61.31;101330.22;2094703;28;20036;-77
2023/02/27 02:55:29;;;;;;;5.78;1.88;;;;;;;18.42;62.32;101323.09;2095248;28;20048;-76
2023/02/27 02:56:56;;;;;;;7.53;2.25;;;;;;;18.45;63.12;101331.94;2087612;28;20099;-75
2023/02/27 02:58:26;;;;;;;5.60;1.98;;;;;;;18.52;63.65;101324.78;2084025;28;20076;-76
2023/02/27 02:59:54;;;;;;;6.03;2.38;;;;;;;18.55;64.16;101325.69;2086312;28;20452;-76
2023/02/27 03:01:21;;;;;;;5.80;1.80;;;;;;;18.56;64.99;101347.97;2084314;28;20053;-76
2023/02/27 03:02:49;;;;;;;5.10;2.22;;;;;;;18.57;65.10;101365.78;2078160;28;20087;-76
2023/02/27 03:04:15;;;;;;;5.22;1.80;;;;;;;18.56;65.50;101358.66;2078398;28;20494;-76
2023/02/27 03:05:42;;;;;;;6.35;2.28;;;;;;;18.55;66.05;101372.91;2093457;28;20493;-76
2023/02/27 03:07:10;;;;;;;5.45;2.20;;;;;;;18.52;66.83;101367.56;2089481;28;20521;-76
2023/02/27 03:08:37;;;;;;;4.85;2.10;;;;;;;18.50;67.40;101394.34;2090314;28;20617;-76
2023/02/27 03:10:04;;;;;;;4.72;2.03;;;;;;;18.51;67.87;101389.88;2093382;28;20129;-76
2023/02/27 03:11:34;;;;;;;6.28;2.55;;;;;;;18.46;70.39;101403.25;2087389;28;20061;-76
2023/02/27 03:12:59;;;;;;;8.60;2.03;;;;;;;18.40;73.06;101415.78;2087634;28;20402;-76
2023/02/27 03:14:29;;;;;;;5.28;2.08;;;;;;;18.31;77.39;101428.28;2079057;28;20049;-77
2023/02/27 03:16:00;;;;;;;7.53;2.15;;;;;;;18.19;84.13;101419.44;2083250;28;20052;-76
2023/02/27 03:17:28;;;;;;;5.82;2.72;;;;;;;18.05;89.84;101432.00;2086451;28;20053;-76
2023/02/27 03:18:56;;;;;;;5.60;2.15;;;;;;;17.91;96.82;101416.94;2093932;28;20049;-76
2023/02/27 03:20:23;;;;;;;8.55;2.97;;;;;;;17.79;100.00;101416.94;2087404;28;20048;-75
2023/02/27 03:21:50;;;;;;;8.18;2.95;;;;;;;17.67;100.00;101417.00;2087325;28;20049;-76
2023/02/27 03:23:17;;;;;;;7.30;2.80;;;;;;;17.59;100.00;101404.53;2087827;28;20037;-76
2023/02/27 03:24:44;;;;;;;6.10;3.03;;;;;;;17.49;100.00;101393.88;2087242;28;20071;-76
2023/02/27 03:26:08;;;;;;;7.65;3.05;;;;;;;17.41;100.00;101409.00;2089009;28;20090;-76
2023/02/27 03:27:38;;;;;;;5.95;2.50;;;;;;;17.35;100.00;101394.78;2092461;28;20045;-76
2023/02/27 03:29:04;;;;;;;7.03;2.72;;;;;;;17.28;100.00;101393.91;2094044;28;20151;-75
2023/02/27 03:30:32;;;;;;;10.02;3.63;;;;;;;17.24;100.00;101405.50;2093277;28;20063;-76
2023/02/27 03:31:58;;;;;;;9.88;3.38;;;;;;;17.22;100.00;101406.38;2094171;28;20052;-76
2023/02/27 03:33:27;;;;;;;10.27;3.70;;;;;;;17.18;100.00;101402.84;2101275;28;20040;-76
2023/02/27 03:34:49;;;;;;;9.20;2.97;;;;;;;17.16;100.00;101409.94;2095106;28;20052;-76
2023/02/27 03:36:20;;;;;;;8.73;2.97;;;;;;;17.18;100.00;101396.59;2087987;28;20099;-77
2023/02/27 03:37:56;;;;;;;8.05;3.30;;;;;;;17.14;100.00;101406.38;2079520;28;20069;-76
2023/02/27 03:39:26;;;;;;;11.00;3.80;;;;;;;17.11;100.00;101411.75;2087329;28;20060;-77
2023/02/27 03:41:00;;;;;;;8.00;3.60;;;;;;;17.10;100.00;101399.28;2084548;28;20583;-76
2023/02/27 03:42:36;;;;;;;8.27;2.95;;;;;;;17.05;100.00;101398.41;2085000;28;20045;-77
2023/02/27 03:44:15;;;;;;;9.48;3.42;;;;;;;17.02;100.00;101393.94;2088391;28;20044;-76
2023/02/27 03:45:42;;;;;;;7.25;3.63;;;;;;;17.02;100.00;101401.06;2084437;28;20102;-77
2023/02/27 03:47:05;;;;;;;10.43;3.65;;;;;;;17.00;100.00;101409.06;2100724;28;20048;-77
2023/02/27 03:48:27;;;;;;;7.82;3.60;;;;;;;17.02;100.00;101415.28;2089389;28;20111;-75
2023/02/27 03:49:51;;;;;;;10.88;3.95;;;;;;;17.03;100.00;101421.50;2078498;28;20037;-75
2023/02/27 03:51:17;;;;;;;7.75;3.00;;;;;;;17.01;100.00;101418.84;2076291;28;20133;-75
2023/02/27 03:52:38;;;;;;;8.90;3.47;;;;;;;16.99;100.00;101425.09;2076560;28;20590;-75
2023/02/27 03:54:11;;;;;;;10.77;3.75;;;;;;;16.95;100.00;101418.84;2089028;28;20203;-76
2023/02/27 03:55:39;;;;;;;10.02;3.53;;;;;;;16.93;100.00;101414.41;2087935;28;20510;-75
2023/02/27 03:57:03;;;;;;;5.95;3.42;;;;;;;16.90;100.00;101420.63;2089112;28;20049;-76
2023/02/27 03:58:27;;;;;;;10.18;4.15;;;;;;;16.87;100.00;101409.94;2092637;28;20075;-75
2023/02/27 03:59:50;;;;;;;9.48;4.05;;;;;;;16.85;100.00;101422.41;2089039;28;20049;-76
2023/02/27 04:01:11;;;;;;;7.50;3.03;;;;;;;16.83;100.00;101417.94;2084241;28;20059;-75
2023/02/27 04:02:35;;;;;;;9.63;3.78;;;;;;;16.81;100.00;101417.94;2081124;28;20041;-76
2023/02/27 04:04:02;;;;;;;10.32;4.07;;;;;;;16.81;100.00;101411.72;2083763;28;20040;-76
2023/02/27 04:05:43;;;;;;;10.90;4.18;;;;;;;16.80;100.00;101425.97;2096498;28;20151;-76
2023/02/27 04:07:22;;;;;;;10.40;4.25;;;;;;;16.79;100.00;101421.53;2086628;28;20082;-75
2023/02/27 04:08:57;;;;;;;10.45;3.63;;;;;;;16.78;100.00;101414.41;2096094;28;20051;-77
2023/02/27 04:10:36;;;;;;;9.23;3.75;;;;;;;16.77;100.00;101426.84;2087540;28;20067;-75
2023/02/27 04:12:23;;;;;;;6.30;3.20;;;;;;;16.79;100.00;101405.53;2088309;28;20049;-75
2023/02/27 04:14:01;;;;;;;8.60;3.92;;;;;;;16.81;100.00;101419.72;2096332;28;20048;-76
2023/02/27 04:15:33;;;;;;;9.30;3.47;;;;;;;16.81;100.00;101404.59;2088960;28;20045;-75
2023/02/27 04:17:21;;;;;;;8.77;3.35;;;;;;;16.82;100.00;101389.50;2086206;28;20041;-76
2023/02/27 04:18:55;;;;;;;10.82;4.90;;;;;;;16.81;100.00;101401.94;2089016;28;20045;-76
2023/02/27 04:20:28;;;;;;;8.90;3.65;;;;;;;16.82;100.00;101390.38;2088694;28;20049;-76
2023/02/27 04:22:01;;;;;;;8.77;2.85;;;;;;;16.84;100.00;101374.41;2096071;28;20471;-76
2023/02/27 04:23:31;;;;;;;10.68;3.85;;;;;;;16.85;100.00;101379.75;2096238;28;20844;-76
2023/02/27 04:25:00;;;;;;;14.13;4.45;;;;;;;16.86;100.00;101376.19;2086057;28;20374;-76
2023/02/27 04:26:30;;;;;;;8.65;4.05;;;;;;;16.89;100.00;101385.94;2085750;28;20045;-75
2023/02/27 04:28:02;;;;;;;8.93;3.83;;;;;;;16.89;100.00;101393.94;2103859;28;20507;-75
2023/02/27 04:29:38;;;;;;;8.30;3.90;;;;;;;16.90;100.00;101403.72;2096608;28;20037;-74
2023/02/27 04:31:09;;;;;;;8.13;3.75;;;;;;;16.89;100.00;101402.84;2079806;28;20042;-75
2023/02/27 04:32:37;;;;;;;12.18;4.50;;;;;;;16.88;100.00;101416.16;2085547;28;20041;-76
2023/02/27 04:34:06;;;;;;;7.28;4.10;;;;;;;16.86;100.00;101408.19;2087473;28;20493;-76
2023/02/27 04:35:33;;;;;;;10.35;3.75;;;;;;;16.86;100.00;101433.97;2085680;28;20052;-75
2023/02/27 04:37:00;;;;;;;14.07;4.75;;;;;;;16.86;100.00;101439.31;2084583;28;20398;-75
2023/02/27 04:38:28;;;;;;;10.80;4.05;;;;;;;16.85;100.00;101458.84;2092515;28;20458;-75
2023/02/27 04:39:55;;;;;;;9.60;4.13;;;;;;;16.84;100.00;101463.31;2085961;28;20658;-76
2023/02/27 04:41:22;;;;;;;10.15;4.47;;;;;;;16.83;100.00;101447.28;2091678;28;20056;-75
2023/02/27 04:42:49;;;;;;;9.98;4.57;;;;;;;16.83;100.00;101442.84;2087991;28;20048;-75
2023/02/27 04:44:15;;;;;;;11.18;4.72;;;;;;;16.84;100.00;101451.75;2084820;28;20504;-75
2023/02/27 04:45:41;;;;;;;10.93;4.40;;;;;;;16.84;100.00;101451.75;2095740;28;20060;-75
2023/02/27 04:47:06;;;;;;;10.43;4.22;;;;;;;16.85;100.00;101445.53;2088290;28;20516;-76
2023/02/27 04:48:34;;;;;;;11.70;4.90;;;;;;;16.87;100.00;101439.28;2086838;28;20511;-76
2023/02/27 04:50:01;;;;;;;8.07;3.58;;;;;;;16.87;100.00;101441.09;2103151;28;20036;-77
2023/02/27 04:51:27;;;;;;;10.07;4.03;;;;;;;16.87;100.00;101438.41;2088222;28;20160;-77
2023/02/27 04:52:55;;;;;;;9.00;4.03;;;;;;;16.86;100.00;101442.88;2084381;28;20041;-76
2023/02/27 04:54:23;;;;;;;12.40;4.72;;;;;;;16.86;100.00;101452.63;2086602;28;20048;-75
2023/02/27 04:55:50;;;;;;;10.10;4.38;;;;;;;16.86;100.00;101457.97;2082645;28;20041;-76
2023/02/27 04:57:18;;;;;;;10.27;4.22;;;;;;;16.85;100.00;101458.84;2092874;28;20052;-76
2023/02/27 04:58:45;;;;;;;13.93;3.97;;;;;;;16.85;100.00;101448.19;2086394;28;20040;-76
2023/02/27 05:00:12;;;;;;;8.68;3.70;;;;;;;16.84;100.00;101435.75;2089876;28;20056;-75
2023/02/27 05:01:41;;;;;;;7.72;4.07;;;;;;;16.86;100.00;101461.53;2092889;28;20544;-76
2023/02/27 05:03:09;;;;;;;11.23;4.78;;;;;;;16.88;100.00;101442.84;2101632;28;20411;-76
2023/02/27 05:04:37;;;;;;;9.70;4.07;;;;;;;16.86;100.00;101455.31;2100020;28;20377;-74
2023/02/27 05:06:01;;;;;;;12.27;4.95;;;;;;;16.88;100.00;101458.84;2094706;28;20113;-76
2023/02/27 05:07:27;;;;;;;11.10;4.80;;;;;;;16.88;100.00;101450.84;2085639;28;20048;-76
2023/02/27 05:08:57;;;;;;;11.00;5.32;;;;;;;16.90;100.00;101454.41;2084243;28;20136;-75
2023/02/27 05:10:29;;;;;;;13.20;4.70;;;;;;;16.89;100.00;101455.28;2093373;28;20060;-76
2023/02/27 05:11:57;;;;;;;9.00;4.30;;;;;;;16.90;100.00;101451.75;2094808;28;20040;-77
2023/02/27 05:13:24;;;;;;;11.38;4.35;;;;;;;16.92;100.00;101468.66;2095115;28;20680;-76
2023/02/27 05:14:50;;;;;;;12.38;4.97;;;;;;;16.93;100.00;101467.75;2096904;28;20057;-77
2023/02/27 05:16:18;;;;;;;10.43;4.85;;;;;;;16.93;100.00;101470.44;2099113;28;20055;-77
2023/02/27 05:17:46;;;;;;;11.68;4.68;;;;;;;16.95;100.00;101468.63;2103593;28;20040;-77
2023/02/27 05:19:10;;;;;;;14.32;5.03;;;;;;;16.96;100.00;101463.31;2078305;28;20048;-77
2023/02/27 05:20:41;;;;;;;10.20;4.35;;;;;;;16.97;100.00;101462.41;2083685;28;20049;-77
2023/02/27 05:22:13;;;;;;;9.82;4.50;;;;;;;16.99;100.00;101470.44;2101773;28;20051;-76
2023/02/27 05:23:43;;;;;;;10.77;5.30;;;;;;;16.99;100.00;101466.00;2103902;28;20516;-77
2023/02/27 05:25:12;;;;;;;8.85;4.15;;;;;;;17.01;100.00;101476.63;2090525;28;20045;-76
2023/02/27 05:26:45;;;;;;;13.68;4.65;;;;;;;17.02;100.00;101465.09;2086991;28;20333;-76
2023/02/27 05:28:13;;;;;;;10.40;4.55;;;;;;;17.02;100.00;101470.41;2091808;28;20096;-75
2023/02/27 05:29:45;;;;;;;10.88;4.97;;;;;;;17.04;100.00;101471.31;2094951;28;20405;-76
2023/02/27 05:31:15;;;;;;;10.02;4.00;;;;;;;17.04;100.00;101490.88;2103923;28;20074;-75
2023/02/27 05:32:45;;;;;;;10.70;4.47;;;;;;;17.06;100.00;101486.44;2088158;28;20057;-76
2023/02/27 05:34:11;;;;;;;7.80;4.22;;;;;;;17.07;100.00;101498.88;2084738;28;20269;-76
2023/02/27 05:35:42;;;;;;;8.95;4.75;;;;;;;17.11;100.00;101505.13;2092176;28;20448;-76
2023/02/27 05:37:09;;;;;;;10.57;4.85;;;;;;;17.11;100.00;101530.03;2085323;28;20049;-75
2023/02/27 05:38:37;;;;;;;11.35;4.95;;;;;;;17.13;100.00;101514.88;2084685;28;20521;-75
2023/02/27 05:40:05;;;;;;;13.80;5.00;;;;;;;17.13;100.00;101514.03;2091315;28;20067;-76
2023/02/27 05:41:33;;;;;;;10.07;4.38;;;;;;;17.16;100.00;101522.00;2091321;28;20052;-76
2023/02/27 05:43:01;;;;;;;13.27;4.55;;;;;;;17.17;100.00;101523.81;2101331;28;20036;-75
2023/02/27 05:44:29;;;;;;;12.35;4.40;;;;;;;17.19;100.00;101516.69;2080021;28;20466;-76
2023/02/27 05:45:59;;;;;;;11.43;4.15;;;;;;;17.19;100.00;101523.81;2081209;28;20061;-76
2023/02/27 05:47:25;;;;;;;9.18;3.97;;;;;;;17.21;100.00;101546.91;2094993;28;20412;-75
2023/02/27 05:48:55;;;;;;;8.98;3.55;;;;;;;17.22;100.00;101561.16;2089849;28;20550;-75
2023/02/27 05:50:21;;;;;;;8.27;4.18;;;;;;;17.24;100.00;101567.41;2085900;28;20068;-76
2023/02/27 05:51:47;;;;;;;13.00;5.25;;;;;;;17.26;100.00;101566.53;2079625;28;20052;-75
2023/02/27 05:53:14;;;;;;;13.35;3.92;;;;;;;17.29;100.00;101568.28;2092128;28;20067;-76
2023/02/27 05:54:44;;;;;;;7.80;4.38;;;;;;;17.31;100.00;101564.75;2094171;28;20853;-76
2023/02/27 05:56:09;;;;;;;12.05;4.13;;;;;;;17.32;100.00;101573.63;2086792;28;20065;-76
2023/02/27 05:57:36;;;;;;;11.60;4.72;;;;;;;17.36;100.00;101572.75;2072503;28;20106;-76
2023/02/27 05:59:03;;;;;;;11.27;4.15;;;;;;;17.38;100.00;101582.53;2087619;28;20052;-75
2023/02/27 06:00:34;;;;;;;8.15;4.40;;;;;;;17.40;100.00;101574.50;2075438;28;20436;-76
2023/02/27 06:01:57;;;;;;;12.32;4.60;;;;;;;17.41;100.00;101574.53;2082342;28;20060;-75
2023/02/27 06:03:18;;;;;;;12.05;4.72;;;;;;;17.43;100.00;101587.88;2080850;28;20054;-76
2023/02/27 06:04:42;;;;;;;12.13;4.53;;;;;;;17.45;100.00;101586.09;2089718;28;20044;-76
2023/02/27 06:06:07;;;;;;;10.73;4.47;;;;;;;17.47;100.00;101585.19;2084201;28;20057;-76
2023/02/27 06:07:30;;;;;;;10.93;4.45;;;;;;;17.50;100.00;101581.66;2082529;28;20053;-76
2023/02/27 06:08:53;;;;;;;11.23;4.90;;;;;;;17.52;100.00;101595.91;2081154;28;21262;-76
2023/02/27 06:10:18;;;;;;;11.30;4.18;;;;;;;17.54;100.00;101589.66;2072139;28;20151;-75
2023/02/27 06:11:40;;;;;;;9.90;4.20;;;;;;;17.58;100.00;101592.34;2080626;28;20602;-75
2023/02/27 06:13:02;;;;;;;15.02;6.20;;;;;;;17.60;100.00;101587.88;2080630;28;20551;-77
2023/02/27 06:14:25;;;;;;;23.70;13.00;;;;;;;17.63;100.00;101577.22;2079323;28;20626;-76
2023/02/27 06:15:48;;;;;;;14.82;7.53;;;;;;;17.65;100.00;101571.00;2081058;28;20060;-76
2023/02/27 06:17:11;;;;;;;13.65;6.28;;;;;;;17.67;100.00;101569.22;2083512;28;20143;-75
2023/02/27 06:18:33;;;;;;;13.52;7.00;;;;;;;17.71;100.00;101560.31;2087772;28;20162;-75
2023/02/27 06:19:57;;;;;;;11.65;6.75;;;;;;;17.76;100.00;101565.66;2075331;28;20049;-76
2023/02/27 06:21:20;;;;;;;13.30;6.97;;;;;;;17.77;100.00;101572.78;2078280;28;20496;-76
2023/02/27 06:22:41;;;;;;;13.65;5.47;;;;;;;17.81;100.00;101569.19;2083397;28;20508;-76
2023/02/27 06:24:03;;;;;;;12.80;7.35;;;;;;;17.82;100.00;101576.31;2081439;28;20055;-76
2023/02/27 06:25:25;;;;;;;14.40;7.25;;;;;;;17.85;100.00;101581.69;2085784;28;21340;-76
2023/02/27 06:26:48;;;;;;;15.45;7.20;;;;;;;17.87;100.00;101580.78;2092754;28;20531;-76
2023/02/27 06:28:11;;;;;;;12.90;6.80;;;;;;;17.90;100.00;101585.22;2092914;28;20824;-76
2023/02/27 06:29:33;;;;;;;14.75;6.18;;;;;;;17.91;100.00;101581.69;2085463;28;20144;-75
2023/02/27 06:30:56;;;;;;;11.18;4.63;;;;;;;17.92;100.00;101572.75;2082643;28;21869;-76
2023/02/27 06:32:18;;;;;;;12.07;6.30;;;;;;;17.97;100.00;101565.63;2085314;28;20076;-76
2023/02/27 06:33:40;;;;;;;9.15;5.20;;;;;;;17.98;100.00;101585.22;2083171;28;20052;-76
2023/02/27 06:35:05;;;;;;;12.02;5.10;;;;;;;18.01;100.00;101569.16;2090249;28;21469;-75
2023/02/27 06:36:28;;;;;;;13.63;5.30;;;;;;;18.04;100.00;101577.19;2076091;28;20576;-75
2023/02/27 06:37:51;;;;;;;10.90;5.22;;;;;;;18.06;100.00;101573.59;2081859;28;20080;-75
2023/02/27 06:39:13;;;;;;;16.60;6.03;;;;;;;18.09;100.00;101568.28;2087303;28;20048;-76
2023/02/27 06:40:37;;;;;;;12.55;4.88;;;;;;;18.09;100.00;101573.63;2082264;28;20055;-76
2023/02/27 06:41:59;;;;;;;15.13;5.35;;;;;;;18.11;100.00;101563.81;2090738;28;20060;-75